sensor_id;sensor_type;location;lat;lon;timestamp;P1;durP1;ratioP1;P2;durP2;ratioP2
19609;SDS011;9952;47.122;-1.638;2022-07-29T00:00:46;3.60;;;0.90;;
19609;SDS011;9952;47.122;-1.638;2022-07-29T00:05:26;4.60;;;1.30;;
19609;SDS011;9952;47.122;-1.638;2022-07-29T00:10:07;2.13;;;0.90;;
19609;SDS011;9952;47.122;-1.638;2022-07-29T00:14:49;3.33;;;1.10;;
19609;SDS011;9952;47.122;-1.638;2022-07-29T00:19:29;5.77;;;1.10;;
19609;SDS011;9952;47.122;-1.638;2022-07-29T00:24:10;5.87;;;1.17;;
19609;SDS011;9952;47.122;-1.638;2022-07-29T00:28:51;3.43;;;0.90;;
19609;SDS011;9952;47.122;-1.638;2022-07-29T00:33:31;6.47;;;1.03;;
19609;SDS011;9952;47.122;-1.638;2022-07-29T00:38:13;4.23;;;1.80;;
19609;SDS011;9952;47.122;-1.638;2022-07-29T00:42:54;3.27;;;1.10;;
19609;SDS011;9952;47.122;-1.638;2022-07-29T00:47:35;3.03;;;1.23;;
19609;SDS011;9952;47.122;-1.638;2022-07-29T00:52:16;1.20;;;1.07;;
19609;SDS011;9952;47.122;-1.638;2022-07-29T00:57:00;2.23;;;0.90;;
19609;SDS011;9952;47.122;-1.638;2022-07-29T01:01:41;4.37;;;1.40;;
19609;SDS011;9952;47.122;-1.638;2022-07-29T01:06:22;5.23;;;1.13;;
19609;SDS011;9952;47.122;-1.638;2022-07-29T01:11:04;7.03;;;1.17;;
19609;SDS011;9952;47.122;-1.638;2022-07-29T01:15:52;2.47;;;1.10;;
19609;SDS011;9952;47.122;-1.638;2022-07-29T01:30:52;5.23;;;1.33;;
19609;SDS011;9952;47.122;-1.638;2022-07-29T01:35:36;2.63;;;1.33;;
19609;SDS011;9952;47.122;-1.638;2022-07-29T01:45:32;2.60;;;1.20;;
19609;SDS011;9952;47.122;-1.638;2022-07-29T01:50:20;2.73;;;1.30;;
19609;SDS011;9952;47.122;-1.638;2022-07-29T01:55:11;1.97;;;1.00;;
19609;SDS011;9952;47.122;-1.638;2022-07-29T01:59:56;7.00;;;1.37;;
19609;SDS011;9952;47.122;-1.638;2022-07-29T02:04:38;5.47;;;1.27;;
19609;SDS011;9952;47.122;-1.638;2022-07-29T02:09:21;5.93;;;1.33;;
19609;SDS011;9952;47.122;-1.638;2022-07-29T02:14:03;2.10;;;1.17;;
19609;SDS011;9952;47.122;-1.638;2022-07-29T02:18:45;2.90;;;1.30;;
19609;SDS011;9952;47.122;-1.638;2022-07-29T02:23:28;2.93;;;1.33;;
19609;SDS011;9952;47.122;-1.638;2022-07-29T02:28:11;5.10;;;1.53;;
19609;SDS011;9952;47.122;-1.638;2022-07-29T02:32:52;4.17;;;1.33;;
19609;SDS011;9952;47.122;-1.638;2022-07-29T02:37:35;2.40;;;0.97;;
19609;SDS011;9952;47.122;-1.638;2022-07-29T02:42:17;3.50;;;1.37;;
19609;SDS011;9952;47.122;-1.638;2022-07-29T02:47:02;5.90;;;1.20;;
19609;SDS011;9952;47.122;-1.638;2022-07-29T02:51:53;4.20;;;1.30;;
19609;SDS011;9952;47.122;-1.638;2022-07-29T02:56:36;2.00;;;1.33;;
19609;SDS011;9952;47.122;-1.638;2022-07-29T03:01:21;3.00;;;1.40;;
19609;SDS011;9952;47.122;-1.638;2022-07-29T03:06:03;2.57;;;1.33;;
19609;SDS011;9952;47.122;-1.638;2022-07-29T03:10:46;3.60;;;1.50;;
19609;SDS011;9952;47.122;-1.638;2022-07-29T03:15:28;3.27;;;1.20;;
19609;SDS011;9952;47.122;-1.638;2022-07-29T03:20:10;1.80;;;1.10;;
19609;SDS011;9952;47.122;-1.638;2022-07-29T03:24:52;3.47;;;1.40;;
19609;SDS011;9952;47.122;-1.638;2022-07-29T03:29:33;4.00;;;1.37;;
19609;SDS011;9952;47.122;-1.638;2022-07-29T03:34:14;4.93;;;1.30;;
19609;SDS011;9952;47.122;-1.638;2022-07-29T03:38:55;3.17;;;1.40;;
19609;SDS011;9952;47.122;-1.638;2022-07-29T03:43:37;3.33;;;1.10;;
19609;SDS011;9952;47.122;-1.638;2022-07-29T03:48:21;3.80;;;1.47;;
19609;SDS011;9952;47.122;-1.638;2022-07-29T03:53:04;4.10;;;1.20;;
19609;SDS011;9952;47.122;-1.638;2022-07-29T03:57:45;3.03;;;1.30;;
19609;SDS011;9952;47.122;-1.638;2022-07-29T04:02:28;4.67;;;1.57;;
19609;SDS011;9952;47.122;-1.638;2022-07-29T04:07:11;3.43;;;1.30;;
19609;SDS011;9952;47.122;-1.638;2022-07-29T04:11:53;3.67;;;1.40;;
19609;SDS011;9952;47.122;-1.638;2022-07-29T04:16:33;1.93;;;1.30;;
19609;SDS011;9952;47.122;-1.638;2022-07-29T04:21:14;1.63;;;1.20;;
19609;SDS011;9952;47.122;-1.638;2022-07-29T04:25:55;5.23;;;1.40;;
19609;SDS011;9952;47.122;-1.638;2022-07-29T04:30:36;3.00;;;1.30;;
19609;SDS011;9952;47.122;-1.638;2022-07-29T04:35:18;4.77;;;1.50;;
19609;SDS011;9952;47.122;-1.638;2022-07-29T04:39:59;5.50;;;1.50;;
19609;SDS011;9952;47.122;-1.638;2022-07-29T04:44:40;3.70;;;1.23;;
19609;SDS011;9952;47.122;-1.638;2022-07-29T04:49:20;2.10;;;1.13;;
19609;SDS011;9952;47.122;-1.638;2022-07-29T04:54:01;5.13;;;1.20;;
19609;SDS011;9952;47.122;-1.638;2022-07-29T04:58:42;6.07;;;1.37;;
19609;SDS011;9952;47.122;-1.638;2022-07-29T05:03:23;4.63;;;1.43;;
19609;SDS011;9952;47.122;-1.638;2022-07-29T05:08:03;7.53;;;1.50;;
19609;SDS011;9952;47.122;-1.638;2022-07-29T05:12:44;2.40;;;1.43;;
19609;SDS011;9952;47.122;-1.638;2022-07-29T05:17:25;4.03;;;1.23;;
19609;SDS011;9952;47.122;-1.638;2022-07-29T05:22:06;2.60;;;1.20;;
19609;SDS011;9952;47.122;-1.638;2022-07-29T05:26:47;7.23;;;1.90;;
19609;SDS011;9952;47.122;-1.638;2022-07-29T05:31:28;4.47;;;1.43;;
19609;SDS011;9952;47.122;-1.638;2022-07-29T05:36:08;6.73;;;1.97;;
19609;SDS011;9952;47.122;-1.638;2022-07-29T05:40:49;5.03;;;1.40;;
19609;SDS011;9952;47.122;-1.638;2022-07-29T05:45:30;5.57;;;1.80;;
19609;SDS011;9952;47.122;-1.638;2022-07-29T05:50:11;3.57;;;1.93;;
19609;SDS011;9952;47.122;-1.638;2022-07-29T05:54:52;2.57;;;1.40;;
19609;SDS011;9952;47.122;-1.638;2022-07-29T05:59:36;4.53;;;1.30;;
19609;SDS011;9952;47.122;-1.638;2022-07-29T06:04:17;3.90;;;1.20;;
19609;SDS011;9952;47.122;-1.638;2022-07-29T06:08:59;4.83;;;1.80;;
19609;SDS011;9952;47.122;-1.638;2022-07-29T06:13:40;3.67;;;1.80;;
19609;SDS011;9952;47.122;-1.638;2022-07-29T06:18:21;3.73;;;1.70;;
19609;SDS011;9952;47.122;-1.638;2022-07-29T06:23:05;5.57;;;1.53;;
19609;SDS011;9952;47.122;-1.638;2022-07-29T06:27:46;2.13;;;1.63;;
19609;SDS011;9952;47.122;-1.638;2022-07-29T06:32:27;8.07;;;1.80;;
19609;SDS011;9952;47.122;-1.638;2022-07-29T06:37:08;4.53;;;1.50;;
19609;SDS011;9952;47.122;-1.638;2022-07-29T06:41:49;3.90;;;1.90;;
19609;SDS011;9952;47.122;-1.638;2022-07-29T06:46:30;4.73;;;1.60;;
19609;SDS011;9952;47.122;-1.638;2022-07-29T06:51:12;4.57;;;1.60;;
19609;SDS011;9952;47.122;-1.638;2022-07-29T06:55:52;4.97;;;1.83;;
19609;SDS011;9952;47.122;-1.638;2022-07-29T07:00:33;3.33;;;1.70;;
19609;SDS011;9952;47.122;-1.638;2022-07-29T07:05:14;3.77;;;1.77;;
19609;SDS011;9952;47.122;-1.638;2022-07-29T07:09:55;5.03;;;1.70;;
19609;SDS011;9952;47.122;-1.638;2022-07-29T07:14:36;4.87;;;2.10;;
19609;SDS011;9952;47.122;-1.638;2022-07-29T07:19:16;5.83;;;1.87;;
19609;SDS011;9952;47.122;-1.638;2022-07-29T07:23:59;6.80;;;1.93;;
19609;SDS011;9952;47.122;-1.638;2022-07-29T07:28:40;5.20;;;1.93;;
19609;SDS011;9952;47.122;-1.638;2022-07-29T07:33:21;7.73;;;2.03;;
19609;SDS011;9952;47.122;-1.638;2022-07-29T07:38:01;7.23;;;2.20;;
19609;SDS011;9952;47.122;-1.638;2022-07-29T07:42:42;4.57;;;1.90;;
19609;SDS011;9952;47.122;-1.638;2022-07-29T07:47:23;4.50;;;1.43;;
19609;SDS011;9952;47.122;-1.638;2022-07-29T07:52:04;5.10;;;1.63;;
19609;SDS011;9952;47.122;-1.638;2022-07-29T07:56:45;3.43;;;1.97;;
19609;SDS011;9952;47.122;-1.638;2022-07-29T08:01:28;7.73;;;2.17;;
19609;SDS011;9952;47.122;-1.638;2022-07-29T08:06:09;3.07;;;1.90;;
19609;SDS011;9952;47.122;-1.638;2022-07-29T08:10:50;6.80;;;1.80;;
19609;SDS011;9952;47.122;-1.638;2022-07-29T08:15:35;7.27;;;2.07;;
19609;SDS011;9952;47.122;-1.638;2022-07-29T08:20:16;4.50;;;1.67;;
19609;SDS011;9952;47.122;-1.638;2022-07-29T08:24:57;6.67;;;2.37;;
19609;SDS011;9952;47.122;-1.638;2022-07-29T08:29:39;7.90;;;1.53;;
19609;SDS011;9952;47.122;-1.638;2022-07-29T08:34:20;3.60;;;1.63;;
19609;SDS011;9952;47.122;-1.638;2022-07-29T08:39:02;3.87;;;1.70;;
19609;SDS011;9952;47.122;-1.638;2022-07-29T08:43:43;4.33;;;1.77;;
19609;SDS011;9952;47.122;-1.638;2022-07-29T08:48:24;4.33;;;1.40;;
19609;SDS011;9952;47.122;-1.638;2022-07-29T08:53:06;4.70;;;1.40;;
19609;SDS011;9952;47.122;-1.638;2022-07-29T08:57:50;6.57;;;1.40;;
19609;SDS011;9952;47.122;-1.638;2022-07-29T09:02:33;6.47;;;1.57;;
19609;SDS011;9952;47.122;-1.638;2022-07-29T09:07:19;5.77;;;1.83;;
19609;SDS011;9952;47.122;-1.638;2022-07-29T09:11:59;2.47;;;1.30;;
19609;SDS011;9952;47.122;-1.638;2022-07-29T09:16:51;2.40;;;1.40;;
19609;SDS011;9952;47.122;-1.638;2022-07-29T09:21:40;4.40;;;1.58;;
19609;SDS011;9952;47.122;-1.638;2022-07-29T09:26:42;4.22;;;1.30;;
19609;SDS011;9952;47.122;-1.638;2022-07-29T09:31:35;4.38;;;1.45;;
19609;SDS011;9952;47.122;-1.638;2022-07-29T09:36:17;2.63;;;1.23;;
19609;SDS011;9952;47.122;-1.638;2022-07-29T09:40:59;6.28;;;1.50;;
19609;SDS011;9952;47.122;-1.638;2022-07-29T09:45:40;3.28;;;1.50;;
19609;SDS011;9952;47.122;-1.638;2022-07-29T09:50:21;2.13;;;1.20;;
19609;SDS011;9952;47.122;-1.638;2022-07-29T09:55:08;4.05;;;1.50;;
19609;SDS011;9952;47.122;-1.638;2022-07-29T10:00:00;2.88;;;1.42;;
19609;SDS011;9952;47.122;-1.638;2022-07-29T10:04:47;3.72;;;1.27;;
19609;SDS011;9952;47.122;-1.638;2022-07-29T10:09:27;4.80;;;1.45;;
19609;SDS011;9952;47.122;-1.638;2022-07-29T10:14:08;3.83;;;1.33;;
19609;SDS011;9952;47.122;-1.638;2022-07-29T10:18:49;1.77;;;1.05;;
19609;SDS011;9952;47.122;-1.638;2022-07-29T10:23:31;4.53;;;1.60;;
19609;SDS011;9952;47.122;-1.638;2022-07-29T10:28:12;7.28;;;1.70;;
19609;SDS011;9952;47.122;-1.638;2022-07-29T10:43:17;5.53;;;1.50;;
19609;SDS011;9952;47.122;-1.638;2022-07-29T10:48:03;3.47;;;1.27;;
19609;SDS011;9952;47.122;-1.638;2022-07-29T10:57:30;2.65;;;1.30;;
19609;SDS011;9952;47.122;-1.638;2022-07-29T11:07:11;4.82;;;1.52;;
19609;SDS011;9952;47.122;-1.638;2022-07-29T11:11:52;3.28;;;1.35;;
19609;SDS011;9952;47.122;-1.638;2022-07-29T11:17:15;6.78;;;2.00;;
19609;SDS011;9952;47.122;-1.638;2022-07-29T11:21:43;5.15;;;1.45;;
19609;SDS011;9952;47.122;-1.638;2022-07-29T11:26:29;3.97;;;1.20;;
19609;SDS011;9952;47.122;-1.638;2022-07-29T11:31:10;2.67;;;1.40;;
19609;SDS011;9952;47.122;-1.638;2022-07-29T11:36:07;4.38;;;1.33;;
19609;SDS011;9952;47.122;-1.638;2022-07-29T11:46:02;1.70;;;1.17;;
19609;SDS011;9952;47.122;-1.638;2022-07-29T11:50:43;4.30;;;1.50;;
19609;SDS011;9952;47.122;-1.638;2022-07-29T11:55:25;4.97;;;1.70;;
19609;SDS011;9952;47.122;-1.638;2022-07-29T12:00:06;9.32;;;1.50;;
19609;SDS011;9952;47.122;-1.638;2022-07-29T12:04:49;5.78;;;1.40;;
19609;SDS011;9952;47.122;-1.638;2022-07-29T12:09:34;3.80;;;1.48;;
19609;SDS011;9952;47.122;-1.638;2022-07-29T12:14:26;2.38;;;1.38;;
19609;SDS011;9952;47.122;-1.638;2022-07-29T12:19:08;2.80;;;1.33;;
19609;SDS011;9952;47.122;-1.638;2022-07-29T12:23:52;3.38;;;1.40;;
19609;SDS011;9952;47.122;-1.638;2022-07-29T12:28:37;4.80;;;1.52;;
19609;SDS011;9952;47.122;-1.638;2022-07-29T12:33:20;5.85;;;1.60;;
19609;SDS011;9952;47.122;-1.638;2022-07-29T12:38:04;4.03;;;1.33;;
19609;SDS011;9952;47.122;-1.638;2022-07-29T12:43:04;5.05;;;1.23;;
19609;SDS011;9952;47.122;-1.638;2022-07-29T12:47:50;2.63;;;1.30;;
19609;SDS011;9952;47.122;-1.638;2022-07-29T12:52:33;7.45;;;1.38;;
19609;SDS011;9952;47.122;-1.638;2022-07-29T12:57:14;2.60;;;1.17;;
19609;SDS011;9952;47.122;-1.638;2022-07-29T13:01:55;2.75;;;1.33;;
19609;SDS011;9952;47.122;-1.638;2022-07-29T13:06:37;5.80;;;1.48;;
19609;SDS011;9952;47.122;-1.638;2022-07-29T13:11:29;3.65;;;1.42;;
19609;SDS011;9952;47.122;-1.638;2022-07-29T13:16:13;4.53;;;1.73;;
19609;SDS011;9952;47.122;-1.638;2022-07-29T13:20:54;3.20;;;1.15;;
19609;SDS011;9952;47.122;-1.638;2022-07-29T13:25:35;5.40;;;1.23;;
19609;SDS011;9952;47.122;-1.638;2022-07-29T13:30:20;3.95;;;1.33;;
19609;SDS011;9952;47.122;-1.638;2022-07-29T13:35:03;1.35;;;1.25;;
19609;SDS011;9952;47.122;-1.638;2022-07-29T13:39:46;4.90;;;1.35;;
19609;SDS011;9952;47.122;-1.638;2022-07-29T13:44:27;3.55;;;1.10;;
19609;SDS011;9952;47.122;-1.638;2022-07-29T13:49:08;3.10;;;1.08;;
19609;SDS011;9952;47.122;-1.638;2022-07-29T13:53:49;8.60;;;1.55;;
19609;SDS011;9952;47.122;-1.638;2022-07-29T13:58:29;3.03;;;1.25;;
19609;SDS011;9952;47.122;-1.638;2022-07-29T14:03:10;4.53;;;1.55;;
19609;SDS011;9952;47.122;-1.638;2022-07-29T14:07:51;6.75;;;1.40;;
19609;SDS011;9952;47.122;-1.638;2022-07-29T14:12:32;1.90;;;1.17;;
19609;SDS011;9952;47.122;-1.638;2022-07-29T14:17:13;7.68;;;1.35;;
19609;SDS011;9952;47.122;-1.638;2022-07-29T14:21:54;5.05;;;1.50;;
19609;SDS011;9952;47.122;-1.638;2022-07-29T14:26:35;6.38;;;1.50;;
19609;SDS011;9952;47.122;-1.638;2022-07-29T14:31:15;4.90;;;1.73;;
19609;SDS011;9952;47.122;-1.638;2022-07-29T14:35:56;3.92;;;1.67;;
19609;SDS011;9952;47.122;-1.638;2022-07-29T14:40:37;2.17;;;1.35;;
19609;SDS011;9952;47.122;-1.638;2022-07-29T14:45:18;6.03;;;1.60;;
19609;SDS011;9952;47.122;-1.638;2022-07-29T14:49:59;4.75;;;1.73;;
19609;SDS011;9952;47.122;-1.638;2022-07-29T14:54:40;5.32;;;1.90;;
19609;SDS011;9952;47.122;-1.638;2022-07-29T14:59:20;3.28;;;1.55;;
19609;SDS011;9952;47.122;-1.638;2022-07-29T15:04:01;4.40;;;1.70;;
19609;SDS011;9952;47.122;-1.638;2022-07-29T15:08:42;4.13;;;1.70;;
19609;SDS011;9952;47.122;-1.638;2022-07-29T15:13:23;7.00;;;2.00;;
19609;SDS011;9952;47.122;-1.638;2022-07-29T15:18:04;1.90;;;1.63;;
19609;SDS011;9952;47.122;-1.638;2022-07-29T15:22:45;3.67;;;1.50;;
19609;SDS011;9952;47.122;-1.638;2022-07-29T15:27:26;3.13;;;1.60;;
19609;SDS011;9952;47.122;-1.638;2022-07-29T15:32:07;4.50;;;1.70;;
19609;SDS011;9952;47.122;-1.638;2022-07-29T15:36:48;7.45;;;1.50;;
19609;SDS011;9952;47.122;-1.638;2022-07-29T15:41:30;3.25;;;1.30;;
19609;SDS011;9952;47.122;-1.638;2022-07-29T15:46:15;3.65;;;1.40;;
19609;SDS011;9952;47.122;-1.638;2022-07-29T15:51:16;1.95;;;1.38;;
19609;SDS011;9952;47.122;-1.638;2022-07-29T15:55:56;3.28;;;1.95;;
19609;SDS011;9952;47.122;-1.638;2022-07-29T16:00:37;2.40;;;1.63;;
19609;SDS011;9952;47.122;-1.638;2022-07-29T16:05:18;5.93;;;2.72;;
19609;SDS011;9952;47.122;-1.638;2022-07-29T16:09:59;3.22;;;1.50;;
19609;SDS011;9952;47.122;-1.638;2022-07-29T16:14:39;5.53;;;2.17;;
19609;SDS011;9952;47.122;-1.638;2022-07-29T16:19:20;4.63;;;1.50;;
19609;SDS011;9952;47.122;-1.638;2022-07-29T16:24:02;5.43;;;1.60;;
19609;SDS011;9952;47.122;-1.638;2022-07-29T16:28:43;6.18;;;1.63;;
19609;SDS011;9952;47.122;-1.638;2022-07-29T16:33:24;3.38;;;1.60;;
19609;SDS011;9952;47.122;-1.638;2022-07-29T16:38:05;7.55;;;1.80;;
19609;SDS011;9952;47.122;-1.638;2022-07-29T16:42:46;3.80;;;1.45;;
19609;SDS011;9952;47.122;-1.638;2022-07-29T16:47:27;5.65;;;1.60;;
19609;SDS011;9952;47.122;-1.638;2022-07-29T16:52:08;5.10;;;2.08;;
19609;SDS011;9952;47.122;-1.638;2022-07-29T16:56:48;2.92;;;1.50;;
19609;SDS011;9952;47.122;-1.638;2022-07-29T17:01:29;2.67;;;1.60;;
19609;SDS011;9952;47.122;-1.638;2022-07-29T17:06:10;4.57;;;1.60;;
19609;SDS011;9952;47.122;-1.638;2022-07-29T17:10:51;2.75;;;1.52;;
19609;SDS011;9952;47.122;-1.638;2022-07-29T17:15:31;3.78;;;1.38;;
19609;SDS011;9952;47.122;-1.638;2022-07-29T17:20:12;3.45;;;1.33;;
19609;SDS011;9952;47.122;-1.638;2022-07-29T17:24:53;4.90;;;1.70;;
19609;SDS011;9952;47.122;-1.638;2022-07-29T17:29:34;4.80;;;1.83;;
19609;SDS011;9952;47.122;-1.638;2022-07-29T17:34:15;5.07;;;1.35;;
19609;SDS011;9952;47.122;-1.638;2022-07-29T17:38:57;3.22;;;1.40;;
19609;SDS011;9952;47.122;-1.638;2022-07-29T17:43:42;6.75;;;1.60;;
19609;SDS011;9952;47.122;-1.638;2022-07-29T17:48:23;3.58;;;1.58;;
19609;SDS011;9952;47.122;-1.638;2022-07-29T17:53:04;2.72;;;1.60;;
19609;SDS011;9952;47.122;-1.638;2022-07-29T17:57:44;3.65;;;1.70;;
19609;SDS011;9952;47.122;-1.638;2022-07-29T18:02:25;4.55;;;2.10;;
19609;SDS011;9952;47.122;-1.638;2022-07-29T18:07:06;9.63;;;1.90;;
19609;SDS011;9952;47.122;-1.638;2022-07-29T18:11:47;5.20;;;2.00;;
19609;SDS011;9952;47.122;-1.638;2022-07-29T18:16:27;3.17;;;1.85;;
19609;SDS011;9952;47.122;-1.638;2022-07-29T18:21:09;3.90;;;2.05;;
19609;SDS011;9952;47.122;-1.638;2022-07-29T18:25:50;4.07;;;1.77;;
19609;SDS011;9952;47.122;-1.638;2022-07-29T18:30:32;5.78;;;1.70;;
19609;SDS011;9952;47.122;-1.638;2022-07-29T18:35:16;4.75;;;2.20;;
19609;SDS011;9952;47.122;-1.638;2022-07-29T18:39:57;7.47;;;1.95;;
19609;SDS011;9952;47.122;-1.638;2022-07-29T18:44:37;4.45;;;1.60;;
19609;SDS011;9952;47.122;-1.638;2022-07-29T18:49:18;4.47;;;1.67;;
19609;SDS011;9952;47.122;-1.638;2022-07-29T18:53:59;5.57;;;2.00;;
19609;SDS011;9952;47.122;-1.638;2022-07-29T18:58:40;6.45;;;1.73;;
19609;SDS011;9952;47.122;-1.638;2022-07-29T19:03:20;5.35;;;1.50;;
19609;SDS011;9952;47.122;-1.638;2022-07-29T19:08:01;3.33;;;1.60;;
19609;SDS011;9952;47.122;-1.638;2022-07-29T19:12:42;4.93;;;1.90;;
19609;SDS011;9952;47.122;-1.638;2022-07-29T19:17:23;6.63;;;1.80;;
19609;SDS011;9952;47.122;-1.638;2022-07-29T19:22:03;4.97;;;1.50;;
19609;SDS011;9952;47.122;-1.638;2022-07-29T19:26:44;4.63;;;1.53;;
19609;SDS011;9952;47.122;-1.638;2022-07-29T19:31:28;4.60;;;1.70;;
19609;SDS011;9952;47.122;-1.638;2022-07-29T19:36:09;4.10;;;1.70;;
19609;SDS011;9952;47.122;-1.638;2022-07-29T19:40:50;3.07;;;1.50;;
19609;SDS011;9952;47.122;-1.638;2022-07-29T19:45:31;4.37;;;1.60;;
19609;SDS011;9952;47.122;-1.638;2022-07-29T19:50:12;7.03;;;1.80;;
19609;SDS011;9952;47.122;-1.638;2022-07-29T19:54:53;7.20;;;1.73;;
19609;SDS011;9952;47.122;-1.638;2022-07-29T19:59:34;4.53;;;2.10;;
19609;SDS011;9952;47.122;-1.638;2022-07-29T20:04:15;8.30;;;2.23;;
19609;SDS011;9952;47.122;-1.638;2022-07-29T20:08:56;5.93;;;2.23;;
19609;SDS011;9952;47.122;-1.638;2022-07-29T20:13:36;5.10;;;1.80;;
19609;SDS011;9952;47.122;-1.638;2022-07-29T20:18:17;7.40;;;2.00;;
19609;SDS011;9952;47.122;-1.638;2022-07-29T20:22:58;4.33;;;1.70;;
19609;SDS011;9952;47.122;-1.638;2022-07-29T20:27:41;4.20;;;1.70;;
19609;SDS011;9952;47.122;-1.638;2022-07-29T20:32:22;8.30;;;1.80;;
19609;SDS011;9952;47.122;-1.638;2022-07-29T20:37:02;4.37;;;1.90;;
19609;SDS011;9952;47.122;-1.638;2022-07-29T20:41:43;4.90;;;1.93;;
19609;SDS011;9952;47.122;-1.638;2022-07-29T20:46:24;5.40;;;1.80;;
19609;SDS011;9952;47.122;-1.638;2022-07-29T20:51:05;6.30;;;2.10;;
19609;SDS011;9952;47.122;-1.638;2022-07-29T20:55:46;5.63;;;1.90;;
19609;SDS011;9952;47.122;-1.638;2022-07-29T21:00:27;4.77;;;1.93;;
19609;SDS011;9952;47.122;-1.638;2022-07-29T21:05:08;5.07;;;1.80;;
19609;SDS011;9952;47.122;-1.638;2022-07-29T21:09:49;6.60;;;2.23;;
19609;SDS011;9952;47.122;-1.638;2022-07-29T21:14:30;5.00;;;2.03;;
19609;SDS011;9952;47.122;-1.638;2022-07-29T21:19:20;7.03;;;2.10;;
19609;SDS011;9952;47.122;-1.638;2022-07-29T21:24:01;6.03;;;2.00;;
19609;SDS011;9952;47.122;-1.638;2022-07-29T21:28:42;7.87;;;2.30;;
19609;SDS011;9952;47.122;-1.638;2022-07-29T21:33:24;6.50;;;2.20;;
19609;SDS011;9952;47.122;-1.638;2022-07-29T21:38:06;8.20;;;2.43;;
19609;SDS011;9952;47.122;-1.638;2022-07-29T21:42:46;5.07;;;2.17;;
19609;SDS011;9952;47.122;-1.638;2022-07-29T21:47:27;9.47;;;2.23;;
19609;SDS011;9952;47.122;-1.638;2022-07-29T21:52:08;11.07;;;2.50;;
19609;SDS011;9952;47.122;-1.638;2022-07-29T21:56:49;5.97;;;2.67;;
19609;SDS011;9952;47.122;-1.638;2022-07-29T22:01:29;6.97;;;2.70;;
19609;SDS011;9952;47.122;-1.638;2022-07-29T22:06:10;5.10;;;1.97;;
19609;SDS011;9952;47.122;-1.638;2022-07-29T22:10:51;4.77;;;2.10;;
19609;SDS011;9952;47.122;-1.638;2022-07-29T22:15:32;8.37;;;2.33;;
19609;SDS011;9952;47.122;-1.638;2022-07-29T22:20:13;6.73;;;2.63;;
19609;SDS011;9952;47.122;-1.638;2022-07-29T22:24:53;10.97;;;2.50;;
19609;SDS011;9952;47.122;-1.638;2022-07-29T22:29:34;8.67;;;2.20;;
19609;SDS011;9952;47.122;-1.638;2022-07-29T22:34:15;7.53;;;2.60;;
19609;SDS011;9952;47.122;-1.638;2022-07-29T22:38:56;7.33;;;2.23;;
19609;SDS011;9952;47.122;-1.638;2022-07-29T22:43:37;9.93;;;2.50;;
19609;SDS011;9952;47.122;-1.638;2022-07-29T22:48:18;8.93;;;2.73;;
19609;SDS011;9952;47.122;-1.638;2022-07-29T22:52:59;8.07;;;2.90;;
19609;SDS011;9952;47.122;-1.638;2022-07-29T22:57:40;7.60;;;2.63;;
19609;SDS011;9952;47.122;-1.638;2022-07-29T23:02:21;6.07;;;2.50;;
19609;SDS011;9952;47.122;-1.638;2022-07-29T23:07:02;11.47;;;2.47;;
19609;SDS011;9952;47.122;-1.638;2022-07-29T23:11:42;5.57;;;2.53;;
19609;SDS011;9952;47.122;-1.638;2022-07-29T23:16:23;9.83;;;2.40;;
19609;SDS011;9952;47.122;-1.638;2022-07-29T23:21:04;7.70;;;2.50;;
19609;SDS011;9952;47.122;-1.638;2022-07-29T23:25:45;5.97;;;2.57;;
19609;SDS011;9952;47.122;-1.638;2022-07-29T23:30:26;5.10;;;2.20;;
19609;SDS011;9952;47.122;-1.638;2022-07-29T23:35:07;8.43;;;2.60;;
19609;SDS011;9952;47.122;-1.638;2022-07-29T23:39:48;6.57;;;2.67;;
19609;SDS011;9952;47.122;-1.638;2022-07-29T23:44:29;5.87;;;2.53;;
19609;SDS011;9952;47.122;-1.638;2022-07-29T23:49:10;5.03;;;2.40;;
19609;SDS011;9952;47.122;-1.638;2022-07-29T23:53:51;4.67;;;2.20;;
